Omaha, Nebraska
Current Conditions -  °F | °C
As of 9:52 AM on Monday 26 Jan 2015 (Local Time) from KOMA Reporting Station
Few Clouds Few Clouds  
Wind Chill: 37°   Ceiling: Unl
Heat Index: 43°   Visibility: 10mi
Dew Point: 34°   Wind: 12mph
Humidity: 71%   Direction: 310°NW
Pressure: 29.88"   Gusts: NA
Location:  41.26°N, 95.94°W
Report Text: KOMA 261552Z 31010KT 10SM FEW110 FEW250 06/01 A2988 RMK AO2 SLP123 T00610011
Loading
Personal Weather Stations






























Interactive Weather Map New forecast layout! Learn more

10-Day Weather Forecast

Advertisements
Track Severe Weather on mobile